Time;durP1;ratioP1;P1;durP2;ratioP2;P2;SDS_P1;SDS_P2;PMS_P1;PMS_P2;Temp;Humidity;BMP_temperature;BMP_pressure;BME280_temperature;BME280_humidity;BME280_pressure;Samples;Min_cycle;Max_cycle;Signal;HPM_P1;HPM_P2
2023/05/08 00:00:27;;;;;;;0.57;0.50;;;;;;;;;;5023828;28;20037;-42
2023/05/08 00:02:52;;;;;;;1.10;0.50;;;;;;;;;;5025723;28;20104;-43
2023/05/08 00:05:18;;;;;;;0.50;0.50;;;;;;;;;;5023929;28;20021;-42
2023/05/08 00:07:43;;;;;;;0.57;0.40;;;;;;;;;;5022738;28;20025;-43
2023/05/08 00:10:09;;;;;;;2.28;0.50;;;;;;;;;;5024932;28;20021;-44
2023/05/08 00:12:35;;;;;;;1.50;0.80;;;;;;;;;;5025788;28;20083;-47
2023/05/08 00:15:02;;;;;;;0.85;0.40;;;;;;;;;;5027852;28;20107;-43
2023/05/08 00:17:28;;;;;;;0.65;0.65;;;;;;;;;;5023440;28;20041;-45
2023/05/08 00:19:53;;;;;;;0.50;0.50;;;;;;;;;;5021902;28;20021;-44
2023/05/08 00:22:19;;;;;;;2.13;0.45;;;;;;;;;;5025489;28;20445;-46
2023/05/08 00:24:44;;;;;;;1.95;0.65;;;;;;;;;;5021754;28;20091;-44
2023/05/08 00:27:09;;;;;;;1.48;0.50;;;;;;;;;;5022510;28;20034;-43
2023/05/08 00:29:35;;;;;;;0.65;0.65;;;;;;;;;;5024946;28;20017;-42
2023/05/08 00:32:01;;;;;;;1.83;0.40;;;;;;;;;;5022818;28;20080;-43
2023/05/08 00:34:26;;;;;;;0.60;0.60;;;;;;;;;;5021795;28;20049;-42
2023/05/08 00:36:52;;;;;;;0.60;0.55;;;;;;;;;;5021295;28;20036;-44
2023/05/08 00:39:18;;;;;;;0.68;0.60;;;;;;;;;;5022717;28;20064;-42
2023/05/08 00:41:43;;;;;;;0.80;0.70;;;;;;;;;;5024579;28;20076;-44
2023/05/08 00:44:09;;;;;;;1.75;0.68;;;;;;;;;;5023031;28;20030;-43
2023/05/08 00:46:35;;;;;;;0.93;0.52;;;;;;;;;;5025873;28;20038;-43
2023/05/08 00:49:02;;;;;;;0.63;0.30;;;;;;;;;;5020226;28;20037;-43
2023/05/08 00:51:28;;;;;;;0.98;0.55;;;;;;;;;;5024082;28;20044;-45
2023/05/08 00:53:54;;;;;;;2.88;0.50;;;;;;;;;;5024097;28;20030;-44
2023/05/08 00:56:21;;;;;;;1.05;0.60;;;;;;;;;;5023460;28;20040;-42
2023/05/08 00:58:47;;;;;;;0.70;0.70;;;;;;;;;;5023833;28;20051;-44
2023/05/08 01:01:13;;;;;;;1.00;0.47;;;;;;;;;;5022772;28;20468;-42
2023/05/08 01:03:39;;;;;;;6.07;0.68;;;;;;;;;;5021526;28;20029;-43
2023/05/08 01:06:05;;;;;;;0.60;0.60;;;;;;;;;;5021977;28;20038;-42
2023/05/08 01:08:31;;;;;;;0.90;0.65;;;;;;;;;;5022075;28;20108;-42
2023/05/08 01:11:06;;;;;;;0.80;0.80;;;;;;;;;;5020306;28;20683;-42
2023/05/08 01:13:41;;;;;;;0.60;0.60;;;;;;;;;;5026064;28;20505;-42
2023/05/08 01:16:15;;;;;;;0.47;0.38;;;;;;;;;;5020777;28;20461;-50
2023/05/08 01:18:46;;;;;;;0.65;0.52;;;;;;;;;;5020159;28;20098;-42
2023/05/08 01:21:37;;;;;;;0.52;0.52;;;;;;;;;;5023072;28;20057;-43
2023/05/08 01:24:32;;;;;;;3.08;0.50;;;;;;;;;;5021531;28;20474;-42
2023/05/08 01:27:00;;;;;;;0.52;0.52;;;;;;;;;;5022487;28;20049;-42
2023/05/08 01:29:57;;;;;;;4.30;0.63;;;;;;;;;;5023527;28;20036;-46
2023/05/08 01:32:48;;;;;;;1.15;0.60;;;;;;;;;;4980269;28;20074;-42
2023/05/08 01:35:26;;;;;;;0.93;0.52;;;;;;;;;;4980308;28;20444;-42
2023/05/08 01:37:56;;;;;;;0.82;0.60;;;;;;;;;;4980758;28;20581;-44
2023/05/08 01:40:34;;;;;;;0.80;0.52;;;;;;;;;;4980833;28;20534;-42
2023/05/08 01:43:31;;;;;;;0.50;0.50;;;;;;;;;;4982778;28;20503;-42
2023/05/08 01:46:00;;;;;;;0.50;0.50;;;;;;;;;;4907694;29;20048;-46
2023/05/08 01:48:34;;;;;;;0.70;0.47;;;;;;;;;;4906061;29;20043;-44
2023/05/08 01:51:04;;;;;;;0.47;0.47;;;;;;;;;;4902610;29;20370;-45
2023/05/08 01:53:37;;;;;;;0.80;0.40;;;;;;;;;;4906459;29;20036;-45
2023/05/08 01:56:09;;;;;;;3.25;0.68;;;;;;;;;;4904163;29;20130;-45
2023/05/08 01:58:37;;;;;;;0.70;0.55;;;;;;;;;;4906357;29;20044;-44
2023/05/08 02:01:02;;;;;;;0.93;0.80;;;;;;;;;;4904935;29;20044;-48
2023/05/08 02:03:31;;;;;;;0.50;0.50;;;;;;;;;;4905388;29;20159;-43
2023/05/08 02:05:58;;;;;;;0.60;0.60;;;;;;;;;;4905945;29;20076;-45
2023/05/08 02:08:25;;;;;;;0.70;0.50;;;;;;;;;;4915159;28;20046;-46
2023/05/08 02:10:51;;;;;;;0.80;0.70;;;;;;;;;;4964318;28;20065;-45
2023/05/08 02:13:20;;;;;;;0.80;0.80;;;;;;;;;;4962107;28;20130;-43
2023/05/08 02:15:49;;;;;;;1.05;0.60;;;;;;;;;;4963427;28;20823;-48
2023/05/08 02:18:19;;;;;;;1.10;0.70;;;;;;;;;;4963219;28;20039;-43
2023/05/08 02:20:46;;;;;;;1.20;0.75;;;;;;;;;;4961213;28;20073;-42
2023/05/08 02:23:13;;;;;;;0.63;0.60;;;;;;;;;;4995410;28;20048;-45
2023/05/08 02:25:40;;;;;;;2.15;0.70;;;;;;;;;;5018077;28;20128;-44
2023/05/08 02:28:06;;;;;;;1.55;0.60;;;;;;;;;;5021967;28;20030;-44
2023/05/08 02:30:32;;;;;;;2.08;0.60;;;;;;;;;;5018606;28;20029;-45
2023/05/08 02:32:58;;;;;;;4.07;0.73;;;;;;;;;;5022405;28;20099;-42
2023/05/08 02:35:25;;;;;;;0.63;0.63;;;;;;;;;;5020490;28;20033;-44
2023/05/08 02:37:54;;;;;;;6.03;0.88;;;;;;;;;;5022008;28;20031;-42
2023/05/08 02:40:22;;;;;;;3.72;0.80;;;;;;;;;;5020611;28;20036;-42
2023/05/08 02:42:48;;;;;;;0.50;0.50;;;;;;;;;;5021633;28;20030;-41
2023/05/08 02:45:13;;;;;;;1.15;0.43;;;;;;;;;;5021003;28;20385;-43
2023/05/08 02:47:56;;;;;;;1.50;0.70;;;;;;;;;;5020478;28;20026;-45
2023/05/08 02:50:42;;;;;;;0.80;0.80;;;;;;;;;;5021333;28;20076;-47
2023/05/08 02:53:11;;;;;;;0.65;0.65;;;;;;;;;;5023472;28;20076;-42
2023/05/08 02:55:44;;;;;;;0.77;0.55;;;;;;;;;;5020947;28;20081;-44
2023/05/08 02:58:21;;;;;;;3.42;0.63;;;;;;;;;;5023683;28;20064;-41
2023/05/08 03:00:55;;;;;;;0.85;0.60;;;;;;;;;;5022168;28;20038;-42
2023/05/08 03:03:30;;;;;;;0.82;0.82;;;;;;;;;;5020118;28;20037;-42
2023/05/08 03:05:58;;;;;;;4.47;1.17;;;;;;;;;;5021120;28;20045;-48
2023/05/08 03:08:33;;;;;;;1.40;0.80;;;;;;;;;;5022732;28;20026;-44
2023/05/08 03:11:02;;;;;;;6.40;0.90;;;;;;;;;;5020300;28;20069;-46
2023/05/08 03:13:31;;;;;;;1.15;0.73;;;;;;;;;;5023054;28;20119;-46
2023/05/08 03:16:00;;;;;;;0.85;0.80;;;;;;;;;;5020876;28;21080;-45
2023/05/08 03:18:35;;;;;;;4.70;0.88;;;;;;;;;;5024309;28;20087;-44
2023/05/08 03:21:00;;;;;;;1.33;1.05;;;;;;;;;;5019832;28;20057;-45
2023/05/08 03:23:28;;;;;;;1.05;0.93;;;;;;;;;;5022745;28;20033;-45
2023/05/08 03:25:57;;;;;;;1.42;0.65;;;;;;;;;;5023445;28;20039;-48
2023/05/08 03:28:23;;;;;;;0.77;0.68;;;;;;;;;;5024602;28;20044;-47
2023/05/08 03:30:50;;;;;;;0.80;0.63;;;;;;;;;;5024695;28;20042;-44
2023/05/08 03:33:16;;;;;;;0.82;0.82;;;;;;;;;;5025260;28;20045;-45
2023/05/08 03:35:43;;;;;;;1.50;0.70;;;;;;;;;;5025140;28;20037;-45
2023/05/08 03:38:09;;;;;;;0.70;0.70;;;;;;;;;;5023991;28;20035;-45
2023/05/08 03:40:38;;;;;;;1.33;0.93;;;;;;;;;;5025350;28;20457;-44
2023/05/08 03:43:07;;;;;;;0.77;0.77;;;;;;;;;;5023682;28;20057;-41
2023/05/08 03:45:40;;;;;;;1.27;0.80;;;;;;;;;;5021858;28;20049;-42
2023/05/08 03:48:07;;;;;;;0.70;0.70;;;;;;;;;;5024297;28;20046;-51
2023/05/08 03:50:37;;;;;;;1.33;0.88;;;;;;;;;;5024444;28;20025;-41
2023/05/08 03:53:02;;;;;;;0.80;0.65;;;;;;;;;;5024900;28;20029;-44
2023/05/08 03:55:29;;;;;;;0.80;0.70;;;;;;;;;;5023822;28;20370;-45
2023/05/08 03:57:56;;;;;;;0.80;0.80;;;;;;;;;;5024163;28;20123;-43
2023/05/08 04:00:36;;;;;;;1.25;0.85;;;;;;;;;;5022536;28;20029;-43
2023/05/08 04:03:12;;;;;;;2.00;0.85;;;;;;;;;;5022190;28;20034;-43
2023/05/08 04:05:49;;;;;;;0.70;0.70;;;;;;;;;;5026786;28;20040;-45
2023/05/08 04:08:18;;;;;;;2.83;1.05;;;;;;;;;;5023595;28;20026;-45
2023/05/08 04:10:54;;;;;;;1.33;0.82;;;;;;;;;;5024352;28;20067;-42
2023/05/08 04:13:26;;;;;;;4.20;1.00;;;;;;;;;;5025679;28;20544;-42
2023/05/08 04:15:59;;;;;;;1.38;0.80;;;;;;;;;;5019922;28;20038;-42
2023/05/08 04:18:29;;;;;;;2.60;0.73;;;;;;;;;;5025220;28;20025;-41
2023/05/08 04:20:56;;;;;;;0.80;0.80;;;;;;;;;;5024346;28;20048;-43
2023/05/08 04:23:22;;;;;;;5.05;1.20;;;;;;;;;;5021651;28;20022;-42
2023/05/08 04:25:51;;;;;;;0.95;0.85;;;;;;;;;;5021993;28;20041;-44
2023/05/08 04:28:17;;;;;;;1.40;1.30;;;;;;;;;;5023824;28;20040;-46
2023/05/08 04:30:44;;;;;;;2.05;0.90;;;;;;;;;;5023954;28;20068;-48
2023/05/08 04:33:10;;;;;;;1.17;0.80;;;;;;;;;;5025268;28;20035;-46
2023/05/08 04:35:35;;;;;;;1.10;0.98;;;;;;;;;;5023419;28;20038;-43
2023/05/08 04:38:01;;;;;;;0.77;0.77;;;;;;;;;;5024039;28;20029;-48
2023/05/08 04:40:27;;;;;;;3.63;0.90;;;;;;;;;;5021927;28;21093;-46
2023/05/08 04:42:52;;;;;;;1.40;0.88;;;;;;;;;;5023112;28;20021;-44
2023/05/08 04:45:18;;;;;;;2.25;1.15;;;;;;;;;;5020144;28;20133;-42
2023/05/08 04:47:43;;;;;;;5.63;1.17;;;;;;;;;;5022714;28;20489;-50
2023/05/08 04:50:09;;;;;;;1.23;0.80;;;;;;;;;;5019964;28;20667;-42
2023/05/08 04:52:35;;;;;;;0.95;0.88;;;;;;;;;;5021540;28;20084;-46
2023/05/08 04:55:00;;;;;;;0.80;0.80;;;;;;;;;;5019480;28;20037;-44
2023/05/08 04:57:25;;;;;;;4.45;0.98;;;;;;;;;;5021716;28;20068;-47
2023/05/08 04:59:51;;;;;;;1.27;0.90;;;;;;;;;;5019681;28;20049;-48
2023/05/08 05:02:16;;;;;;;1.42;0.90;;;;;;;;;;5024726;28;20060;-44
2023/05/08 05:04:42;;;;;;;1.25;1.15;;;;;;;;;;5019671;28;20544;-45
2023/05/08 05:07:07;;;;;;;0.90;0.85;;;;;;;;;;5022739;28;20394;-42
2023/05/08 05:09:37;;;;;;;1.33;0.93;;;;;;;;;;5020018;28;20033;-45
2023/05/08 05:12:04;;;;;;;5.43;1.10;;;;;;;;;;5019724;28;20156;-46
2023/05/08 05:14:29;;;;;;;1.20;1.00;;;;;;;;;;5023986;28;20483;-45
2023/05/08 05:16:55;;;;;;;4.57;1.00;;;;;;;;;;5016417;28;20068;-48
2023/05/08 05:19:20;;;;;;;1.00;0.90;;;;;;;;;;5021173;28;20881;-46
2023/05/08 05:21:45;;;;;;;3.45;1.00;;;;;;;;;;5020743;28;20049;-49
2023/05/08 05:24:11;;;;;;;1.85;1.00;;;;;;;;;;5022524;28;20017;-47
2023/05/08 05:26:36;;;;;;;2.40;1.02;;;;;;;;;;5021212;28;20513;-45
2023/05/08 05:29:02;;;;;;;1.23;0.98;;;;;;;;;;5020583;28;20033;-47
2023/05/08 05:31:28;;;;;;;5.85;1.20;;;;;;;;;;5022239;28;20046;-44
2023/05/08 05:33:54;;;;;;;1.80;1.10;;;;;;;;;;5021336;28;20071;-45
2023/05/08 05:36:19;;;;;;;0.90;0.90;;;;;;;;;;5021709;28;20053;-44
2023/05/08 05:38:44;;;;;;;1.35;0.80;;;;;;;;;;5022856;28;20039;-49
2023/05/08 05:41:10;;;;;;;1.40;1.10;;;;;;;;;;5021442;28;20037;-43
2023/05/08 05:43:35;;;;;;;1.27;1.20;;;;;;;;;;5021944;28;20136;-48
2023/05/08 05:46:05;;;;;;;1.73;1.00;;;;;;;;;;5021659;28;20038;-45
2023/05/08 05:48:30;;;;;;;1.27;1.00;;;;;;;;;;5017974;28;20049;-42
2023/05/08 05:50:55;;;;;;;3.70;1.33;;;;;;;;;;5017073;28;20083;-47
2023/05/08 05:53:21;;;;;;;2.08;1.20;;;;;;;;;;5020651;28;20025;-51
2023/05/08 05:55:46;;;;;;;0.90;0.90;;;;;;;;;;5021192;28;20064;-41
2023/05/08 05:58:11;;;;;;;3.60;1.15;;;;;;;;;;5021849;28;20486;-43
2023/05/08 06:00:37;;;;;;;1.10;1.00;;;;;;;;;;5020958;28;20038;-44
2023/05/08 06:03:03;;;;;;;2.35;1.10;;;;;;;;;;5020889;28;20049;-41
2023/05/08 06:05:28;;;;;;;1.17;0.90;;;;;;;;;;5019454;28;20230;-46
2023/05/08 06:07:54;;;;;;;1.27;0.90;;;;;;;;;;5022146;28;20018;-41
2023/05/08 06:10:19;;;;;;;0.70;0.70;;;;;;;;;;5022163;28;20045;-42
2023/05/08 06:12:45;;;;;;;1.35;0.90;;;;;;;;;;5019693;28;20075;-45
2023/05/08 06:15:11;;;;;;;1.27;0.98;;;;;;;;;;5019283;28;20025;-44
2023/05/08 06:17:36;;;;;;;2.15;1.08;;;;;;;;;;5020931;28;20046;-43
2023/05/08 06:20:02;;;;;;;2.30;1.20;;;;;;;;;;5020516;28;20059;-44
2023/05/08 06:22:29;;;;;;;4.68;1.30;;;;;;;;;;5020665;28;20765;-45
2023/05/08 06:24:56;;;;;;;2.00;1.13;;;;;;;;;;5019688;28;20032;-48
2023/05/08 06:27:21;;;;;;;1.50;1.08;;;;;;;;;;5020706;28;20034;-42
2023/05/08 06:29:50;;;;;;;2.25;1.00;;;;;;;;;;5018914;28;20033;-45
2023/05/08 06:32:16;;;;;;;2.47;0.90;;;;;;;;;;5022374;28;20048;-44
2023/05/08 06:34:41;;;;;;;2.00;1.10;;;;;;;;;;5020701;28;20025;-48
2023/05/08 06:37:07;;;;;;;1.83;0.98;;;;;;;;;;5020479;28;20030;-48
2023/05/08 06:39:32;;;;;;;0.93;0.90;;;;;;;;;;5022681;28;20088;-45
2023/05/08 06:41:57;;;;;;;1.73;1.08;;;;;;;;;;5021015;28;20033;-48
2023/05/08 06:44:23;;;;;;;4.07;1.25;;;;;;;;;;5018850;28;20116;-48
2023/05/08 06:46:48;;;;;;;2.95;1.05;;;;;;;;;;5022004;28;20045;-46
2023/05/08 06:49:13;;;;;;;1.40;1.30;;;;;;;;;;5026925;28;20041;-45
2023/05/08 06:51:39;;;;;;;1.63;1.27;;;;;;;;;;5026369;28;20405;-48
2023/05/08 06:54:07;;;;;;;1.95;1.17;;;;;;;;;;5027012;28;20036;-42
2023/05/08 06:56:35;;;;;;;4.20;1.00;;;;;;;;;;5026554;28;20513;-46
2023/05/08 06:59:01;;;;;;;0.90;0.85;;;;;;;;;;5022959;28;20538;-48
2023/05/08 07:01:26;;;;;;;0.98;0.77;;;;;;;;;;5026029;28;20124;-48
2023/05/08 07:03:51;;;;;;;1.88;1.23;;;;;;;;;;5022708;28;20100;-46
2023/05/08 07:06:18;;;;;;;0.90;0.90;;;;;;;;;;5025285;28;20042;-47
2023/05/08 07:08:43;;;;;;;1.25;1.17;;;;;;;;;;5026577;28;20083;-45
2023/05/08 07:11:09;;;;;;;1.10;1.00;;;;;;;;;;5024320;28;20038;-48
2023/05/08 07:13:35;;;;;;;5.75;1.00;;;;;;;;;;5021964;28;20140;-47
2023/05/08 07:16:00;;;;;;;0.98;0.93;;;;;;;;;;5026504;28;20461;-41
2023/05/08 07:18:26;;;;;;;2.72;1.13;;;;;;;;;;5024309;28;20061;-48
2023/05/08 07:20:51;;;;;;;2.58;1.02;;;;;;;;;;5024664;28;20038;-46
2023/05/08 07:23:17;;;;;;;1.48;0.82;;;;;;;;;;5021879;28;20537;-48
2023/05/08 07:25:42;;;;;;;3.10;1.13;;;;;;;;;;5019408;28;20048;-45
2023/05/08 07:28:08;;;;;;;1.98;0.80;;;;;;;;;;5024201;28;20385;-50
2023/05/08 07:30:34;;;;;;;3.55;1.42;;;;;;;;;;5020987;28;20045;-43
2023/05/08 07:33:00;;;;;;;3.10;0.90;;;;;;;;;;5022847;28;20037;-44
2023/05/08 07:35:25;;;;;;;3.22;0.80;;;;;;;;;;5020679;28;20057;-45
2023/05/08 07:37:51;;;;;;;0.90;0.90;;;;;;;;;;5019812;28;21825;-42
2023/05/08 07:40:16;;;;;;;10.75;1.65;;;;;;;;;;5021840;28;20060;-47
2023/05/08 07:42:43;;;;;;;1.45;0.93;;;;;;;;;;5023348;28;20029;-49
2023/05/08 07:45:10;;;;;;;1.58;0.90;;;;;;;;;;5023802;28;20386;-44
2023/05/08 07:47:35;;;;;;;8.65;0.80;;;;;;;;;;5023665;28;20833;-48
2023/05/08 07:50:01;;;;;;;1.42;0.80;;;;;;;;;;5023798;28;20513;-49
2023/05/08 07:52:26;;;;;;;0.70;0.70;;;;;;;;;;5020421;28;20050;-51
2023/05/08 07:54:51;;;;;;;10.82;1.10;;;;;;;;;;5020186;28;20037;-47
2023/05/08 07:57:17;;;;;;;2.58;0.80;;;;;;;;;;5022520;28;20121;-46
2023/05/08 07:59:42;;;;;;;1.17;0.90;;;;;;;;;;5018691;28;20046;-45
2023/05/08 08:02:08;;;;;;;2.10;0.82;;;;;;;;;;5020292;28;20056;-47
2023/05/08 08:04:33;;;;;;;1.23;1.10;;;;;;;;;;5024657;28;20456;-48
2023/05/08 08:06:59;;;;;;;8.70;3.28;;;;;;;;;;5025974;28;20094;-44
2023/05/08 08:09:24;;;;;;;0.93;0.80;;;;;;;;;;5018672;28;20037;-45
2023/05/08 08:11:50;;;;;;;1.65;0.95;;;;;;;;;;5021324;28;20033;-43
2023/05/08 08:14:15;;;;;;;17.08;1.10;;;;;;;;;;5020827;28;20022;-44
2023/05/08 08:16:43;;;;;;;2.50;0.90;;;;;;;;;;5023951;28;20034;-43
2023/05/08 08:19:09;;;;;;;19.88;1.65;;;;;;;;;;5023590;28;20029;-44
2023/05/08 08:21:35;;;;;;;3.35;1.00;;;;;;;;;;5024129;28;20034;-48
2023/05/08 08:24:00;;;;;;;2.92;0.90;;;;;;;;;;5023554;28;20132;-46
2023/05/08 08:26:26;;;;;;;2.25;0.82;;;;;;;;;;5025917;28;20121;-48
2023/05/08 08:28:51;;;;;;;1.92;1.10;;;;;;;;;;5023384;28;20143;-44
2023/05/08 08:31:18;;;;;;;3.15;0.82;;;;;;;;;;5022181;28;20034;-48
2023/05/08 08:33:43;;;;;;;1.15;0.70;;;;;;;;;;5021630;28;20026;-44
2023/05/08 08:36:13;;;;;;;3.58;0.93;;;;;;;;;;5021497;28;20091;-44
2023/05/08 08:38:38;;;;;;;2.38;1.05;;;;;;;;;;5020650;28;20034;-44
2023/05/08 08:41:04;;;;;;;2.03;0.85;;;;;;;;;;5019055;28;20040;-44
2023/05/08 08:43:29;;;;;;;1.75;1.08;;;;;;;;;;5023267;28;20037;-48
2023/05/08 08:45:55;;;;;;;5.03;1.70;;;;;;;;;;5021912;28;20117;-46
2023/05/08 08:48:26;;;;;;;3.92;1.00;;;;;;;;;;5021477;28;20160;-45
2023/05/08 08:50:58;;;;;;;2.95;0.80;;;;;;;;;;5020842;28;20148;-46
2023/05/08 08:53:33;;;;;;;14.63;7.95;;;;;;;;;;5023602;28;20475;-45
2023/05/08 08:56:01;;;;;;;4.25;1.20;;;;;;;;;;5021355;28;20124;-44
2023/05/08 08:58:32;;;;;;;1.58;0.63;;;;;;;;;;5022852;28;20045;-45
2023/05/08 09:00:59;;;;;;;0.70;0.70;;;;;;;;;;5019772;28;20183;-42
2023/05/08 09:03:25;;;;;;;1.02;1.02;;;;;;;;;;5023385;28;20042;-43
2023/05/08 09:05:52;;;;;;;2.53;0.90;;;;;;;;;;5019851;28;20576;-49
2023/05/08 09:08:18;;;;;;;25.55;1.52;;;;;;;;;;5019779;28;20022;-43
2023/05/08 09:10:44;;;;;;;3.70;2.60;;;;;;;;;;5018545;28;20060;-44
2023/05/08 09:13:09;;;;;;;82.63;66.45;;;;;;;;;;5019688;28;20033;-43
2023/05/08 09:15:35;;;;;;;11.20;6.72;;;;;;;;;;5020768;28;20099;-45
2023/05/08 09:18:01;;;;;;;20.92;15.57;;;;;;;;;;5020952;28;20030;-46
2023/05/08 09:20:27;;;;;;;1.45;1.20;;;;;;;;;;5019771;28;20026;-46
2023/05/08 09:22:53;;;;;;;9.88;1.55;;;;;;;;;;5022508;28;20489;-44
2023/05/08 09:25:18;;;;;;;28.40;2.83;;;;;;;;;;5021727;28;20037;-42
2023/05/08 09:27:44;;;;;;;45.35;7.90;;;;;;;;;;5021989;28;20033;-43
2023/05/08 09:30:11;;;;;;;0.82;0.82;;;;;;;;;;5018374;28;20123;-44
2023/05/08 09:32:41;;;;;;;19.80;1.50;;;;;;;;;;5021460;28;20975;-48
2023/05/08 09:35:08;;;;;;;99.55;10.85;;;;;;;;;;5022340;28;20120;-45
2023/05/08 09:37:45;;;;;;;11.27;10.32;;;;;;;;;;5015720;28;20038;-45
2023/05/08 09:40:14;;;;;;;98.63;88.05;;;;;;;;;;5022608;28;20034;-43
2023/05/08 09:42:39;;;;;;;14.43;13.18;;;;;;;;;;5018603;28;20080;-44
2023/05/08 09:45:06;;;;;;;29.58;1.48;;;;;;;;;;5022369;28;20076;-45
2023/05/08 09:47:31;;;;;;;2.83;1.58;;;;;;;;;;5023119;28;20570;-46
2023/05/08 09:50:00;;;;;;;14.05;2.90;;;;;;;;;;5022428;28;20144;-46
2023/05/08 09:52:27;;;;;;;6.30;5.72;;;;;;;;;;5023239;28;20041;-43
2023/05/08 09:55:19;;;;;;;1.98;0.75;;;;;;;;;;5024889;28;20363;-43
2023/05/08 09:57:56;;;;;;;40.47;2.08;;;;;;;;;;5021758;28;20057;-47
2023/05/08 10:00:22;;;;;;;4.93;0.80;;;;;;;;;;5020623;28;20030;-45
2023/05/08 10:02:55;;;;;;;11.20;1.58;;;;;;;;;;5021297;28;20056;-46
2023/05/08 10:05:23;;;;;;;3.05;0.60;;;;;;;;;;5019845;28;20099;-49
2023/05/08 10:07:48;;;;;;;90.10;4.85;;;;;;;;;;5022890;28;20642;-43
2023/05/08 10:10:23;;;;;;;1.15;0.70;;;;;;;;;;5019987;28;20062;-43
2023/05/08 10:12:49;;;;;;;171.98;8.15;;;;;;;;;;5021201;28;20026;-44
2023/05/08 10:15:15;;;;;;;12.60;1.33;;;;;;;;;;5022678;28;20539;-46
2023/05/08 10:17:53;;;;;;;1.60;0.52;;;;;;;;;;5023217;28;20454;-45
2023/05/08 10:20:20;;;;;;;5.25;0.88;;;;;;;;;;5018042;28;20056;-41
2023/05/08 10:22:47;;;;;;;7.78;0.77;;;;;;;;;;5022070;28;20056;-47
2023/05/08 10:25:17;;;;;;;13.57;0.80;;;;;;;;;;5019231;28;20374;-40
2023/05/08 10:28:14;;;;;;;3.05;0.68;;;;;;;;;;5022673;28;20037;-44
2023/05/08 10:30:46;;;;;;;1.10;0.85;;;;;;;;;;5019969;28;20042;-46
2023/05/08 10:33:13;;;;;;;;;;;;;;;;;;5018862;28;20037;-44
2023/05/08 10:35:39;;;;;;;3.17;0.88;;;;;;;;;;5020924;28;19929;-48
2023/05/08 10:38:07;;;;;;;16.67;1.48;;;;;;;;;;5019043;28;20513;-47
2023/05/08 10:40:33;;;;;;;14.27;1.30;;;;;;;;;;5019134;28;20663;-48
2023/05/08 10:42:59;;;;;;;2.83;1.10;;;;;;;;;;5019197;28;20079;-43
2023/05/08 10:45:25;;;;;;;2.55;0.70;;;;;;;;;;5017883;28;20029;-45
2023/05/08 10:48:07;;;;;;;0.98;0.70;;;;;;;;;;5018543;28;20029;-43
2023/05/08 10:50:38;;;;;;;1.60;0.65;;;;;;;;;;5022005;28;20052;-45
2023/05/08 10:53:09;;;;;;;1.02;1.02;;;;;;;;;;5018822;28;20038;-44
2023/05/08 10:55:37;;;;;;;3.28;1.60;;;;;;;;;;5020794;28;20379;-44
2023/05/08 10:58:08;;;;;;;21.27;1.75;;;;;;;;;;5021083;28;20041;-47
2023/05/08 11:00:52;;;;;;;0.85;0.85;;;;;;;;;;5018472;28;20042;-48
2023/05/08 11:03:25;;;;;;;1.73;1.10;;;;;;;;;;5021756;28;20048;-45
2023/05/08 11:05:52;;;;;;;82.82;10.02;;;;;;;;;;5018695;28;20116;-43
2023/05/08 11:08:23;;;;;;;497.65;44.78;;;;;;;;;;5018862;28;20434;-43
2023/05/08 11:10:52;;;;;;;12.02;1.23;;;;;;;;;;5019562;28;20121;-48
2023/05/08 11:13:18;;;;;;;2.72;1.00;;;;;;;;;;5021241;28;20048;-43
2023/05/08 11:15:49;;;;;;;0.70;0.55;;;;;;;;;;5022136;28;20741;-46
2023/05/08 11:18:17;;;;;;;2.20;0.95;;;;;;;;;;5018012;28;20083;-44
2023/05/08 11:21:05;;;;;;;0.90;0.77;;;;;;;;;;5021684;28;20441;-44
2023/05/08 11:23:35;;;;;;;5.35;1.17;;;;;;;;;;5020366;28;20064;-44
2023/05/08 11:26:05;;;;;;;9.73;0.93;;;;;;;;;;5020420;28;20050;-47
2023/05/08 11:29:07;;;;;;;3.15;0.90;;;;;;;;;;5021936;28;20022;-44
2023/05/08 11:31:51;;;;;;;1.38;0.90;;;;;;;;;;4981613;28;20054;-47
2023/05/08 11:34:41;;;;;;;1201.82;130.35;;;;;;;;;;4985103;28;20053;-44
2023/05/08 11:37:21;;;;;;;5.25;0.90;;;;;;;;;;4984901;28;20438;-47
2023/05/08 11:39:47;;;;;;;1.08;0.85;;;;;;;;;;4984653;28;20046;-48
2023/05/08 11:42:27;;;;;;;3.70;1.00;;;;;;;;;;4987253;28;20093;-43
2023/05/08 11:45:05;;;;;;;2.50;0.90;;;;;;;;;;4986458;28;20066;-45
2023/05/08 11:47:36;;;;;;;2.25;1.15;;;;;;;;;;4984110;28;20050;-43
2023/05/08 11:50:02;;;;;;;2.22;1.25;;;;;;;;;;4985514;28;20038;-45
2023/05/08 11:52:30;;;;;;;2.85;1.00;;;;;;;;;;4984509;28;20046;-42
2023/05/08 11:54:55;;;;;;;2.65;1.00;;;;;;;;;;4986310;28;20041;-45
2023/05/08 11:57:21;;;;;;;6.22;1.77;;;;;;;;;;4983712;28;20038;-42
2023/05/08 11:59:50;;;;;;;1.73;1.63;;;;;;;;;;4982496;28;20179;-46
2023/05/08 12:02:16;;;;;;;1.20;1.00;;;;;;;;;;4983567;28;20038;-43
2023/05/08 12:04:45;;;;;;;55.28;3.72;;;;;;;;;;4991044;28;20111;-42
2023/05/08 12:07:10;;;;;;;5.32;1.42;;;;;;;;;;5023423;28;20041;-44
2023/05/08 12:09:37;;;;;;;1.27;0.95;;;;;;;;;;5023158;28;20053;-47
2023/05/08 12:12:03;;;;;;;3.45;1.05;;;;;;;;;;5024178;28;20049;-49
2023/05/08 12:14:28;;;;;;;35.40;3.30;;;;;;;;;;5027455;28;21565;-42
2023/05/08 12:16:53;;;;;;;0.90;0.85;;;;;;;;;;5024958;28;20040;-42
2023/05/08 12:19:19;;;;;;;2.95;1.15;;;;;;;;;;5025426;28;20022;-45
2023/05/08 12:21:49;;;;;;;1.35;0.80;;;;;;;;;;5023189;28;20088;-47
2023/05/08 12:24:21;;;;;;;1.17;0.90;;;;;;;;;;5022125;28;20127;-42
2023/05/08 12:26:47;;;;;;;1.13;0.93;;;;;;;;;;5026019;28;20099;-44
2023/05/08 12:29:12;;;;;;;2.28;1.00;;;;;;;;;;5025723;28;20033;-44
2023/05/08 12:31:37;;;;;;;1.67;1.10;;;;;;;;;;5024161;28;20121;-45
2023/05/08 12:34:05;;;;;;;3.47;1.00;;;;;;;;;;5021825;28;20498;-46
2023/05/08 12:36:34;;;;;;;1.00;0.90;;;;;;;;;;5022592;28;20514;-43
2023/05/08 12:39:16;;;;;;;1.95;1.02;;;;;;;;;;5026724;28;20072;-47
2023/05/08 12:41:49;;;;;;;2.58;0.90;;;;;;;;;;5023341;28;20124;-49
2023/05/08 12:44:19;;;;;;;4.82;0.93;;;;;;;;;;5021974;28;20057;-47
2023/05/08 12:46:51;;;;;;;2.78;0.90;;;;;;;;;;5021821;28;20040;-46
2023/05/08 12:49:28;;;;;;;10.55;1.27;;;;;;;;;;5019662;28;20029;-48
2023/05/08 12:52:14;;;;;;;3.10;1.20;;;;;;;;;;5020258;28;20056;-45
2023/05/08 12:54:46;;;;;;;1.15;1.05;;;;;;;;;;5020236;28;20394;-44
2023/05/08 12:57:12;;;;;;;5.07;1.20;;;;;;;;;;5021125;28;20091;-44
2023/05/08 12:59:39;;;;;;;3.22;1.10;;;;;;;;;;5021167;28;20057;-44
2023/05/08 13:02:14;;;;;;;1.50;1.00;;;;;;;;;;5022143;28;20037;-43
2023/05/08 13:04:39;;;;;;;1.20;1.08;;;;;;;;;;5020459;28;20021;-43
2023/05/08 13:07:05;;;;;;;0.88;0.88;;;;;;;;;;5023128;28;20481;-48
2023/05/08 13:09:30;;;;;;;8.65;1.20;;;;;;;;;;5021527;28;20100;-48
2023/05/08 13:11:56;;;;;;;1.05;0.90;;;;;;;;;;5021929;28;20466;-43
2023/05/08 13:14:21;;;;;;;0.88;0.88;;;;;;;;;;5021354;28;20497;-44
2023/05/08 13:16:46;;;;;;;6.93;0.90;;;;;;;;;;5022640;28;20038;-49
2023/05/08 13:19:14;;;;;;;2.70;0.77;;;;;;;;;;5024447;28;20453;-51
2023/05/08 13:21:40;;;;;;;3.75;1.10;;;;;;;;;;5021342;28;20061;-50
2023/05/08 13:24:06;;;;;;;3.03;0.93;;;;;;;;;;5023501;28;20123;-46
2023/05/08 13:26:31;;;;;;;5.28;1.20;;;;;;;;;;5022463;28;20129;-52
2023/05/08 13:28:57;;;;;;;7.22;1.10;;;;;;;;;;5022603;28;20033;-51
2023/05/08 13:31:22;;;;;;;3.03;0.70;;;;;;;;;;5020241;28;20088;-50
2023/05/08 13:33:47;;;;;;;0.80;0.80;;;;;;;;;;5024680;28;20021;-50
2023/05/08 13:36:13;;;;;;;3.85;0.90;;;;;;;;;;5023319;28;20057;-50
2023/05/08 13:38:38;;;;;;;0.75;0.75;;;;;;;;;;5024761;28;20086;-48
2023/05/08 13:41:04;;;;;;;0.95;0.77;;;;;;;;;;5021906;28;20060;-46
2023/05/08 13:43:29;;;;;;;2.92;0.73;;;;;;;;;;5022835;28;20025;-46
2023/05/08 13:45:55;;;;;;;1.50;0.98;;;;;;;;;;5022031;28;20133;-46
2023/05/08 13:48:20;;;;;;;5.25;1.00;;;;;;;;;;5016923;28;22219;-46
2023/05/08 13:50:45;;;;;;;1.25;0.90;;;;;;;;;;5021097;28;20049;-48
2023/05/08 13:53:11;;;;;;;0.88;0.80;;;;;;;;;;5023451;28;20037;-47
2023/05/08 13:55:36;;;;;;;1.08;0.80;;;;;;;;;;5019857;28;20565;-48
2023/05/08 13:58:02;;;;;;;0.80;0.80;;;;;;;;;;5023989;28;20041;-52
2023/05/08 14:00:27;;;;;;;1.70;0.70;;;;;;;;;;5021289;28;20029;-45
2023/05/08 14:02:52;;;;;;;2.78;0.82;;;;;;;;;;5020872;28;20017;-48
2023/05/08 14:05:18;;;;;;;1.35;0.80;;;;;;;;;;5021582;28;20044;-43
2023/05/08 14:07:44;;;;;;;2.10;0.70;;;;;;;;;;5021472;28;20033;-45
2023/05/08 14:10:10;;;;;;;0.80;0.70;;;;;;;;;;5019259;28;20076;-49
2023/05/08 14:12:36;;;;;;;6.00;0.90;;;;;;;;;;5022536;28;20041;-51
2023/05/08 14:15:03;;;;;;;0.60;0.60;;;;;;;;;;5021257;28;20486;-45
2023/05/08 14:17:28;;;;;;;1.30;0.82;;;;;;;;;;5018301;28;20491;-47
2023/05/08 14:19:54;;;;;;;1.10;0.95;;;;;;;;;;5022767;28;20017;-45
2023/05/08 14:22:19;;;;;;;3.90;0.90;;;;;;;;;;5022703;28;20044;-46
2023/05/08 14:24:45;;;;;;;1.50;0.90;;;;;;;;;;5022627;28;20032;-43
2023/05/08 14:27:10;;;;;;;1.65;0.88;;;;;;;;;;5022416;28;20486;-45
2023/05/08 14:29:35;;;;;;;2.47;0.70;;;;;;;;;;5021275;28;20038;-45
2023/05/08 14:32:01;;;;;;;0.68;0.68;;;;;;;;;;5021829;28;20045;-43
2023/05/08 14:34:26;;;;;;;1.30;0.70;;;;;;;;;;5021536;28;20029;-48
2023/05/08 14:36:52;;;;;;;0.70;0.70;;;;;;;;;;5020193;28;20095;-49
2023/05/08 14:39:17;;;;;;;5.88;1.08;;;;;;;;;;5019743;28;20030;-45
2023/05/08 14:41:42;;;;;;;1.00;0.82;;;;;;;;;;5021631;28;20026;-48
2023/05/08 14:44:08;;;;;;;1.60;0.75;;;;;;;;;;5019597;28;20067;-45
2023/05/08 14:46:33;;;;;;;7.18;1.70;;;;;;;;;;5017067;28;20041;-45